Coral Ruby — 3ERR6 — position and weather

sailwx.info

Track history (hours):
 
Tides and Currents Weather Stations Pressure Air Temp Water Temp Dewpoint Dewpoint Depression Visibility Wind Speed Wind Dir Waves Ship Positions

Coral Ruby

Last reported at 2015-Feb-27 00:06 UTC. Time now 2015-Feb-27 00:35 UTC.
Position S 26°42' E 153°54'.

Length 225 m; draft 12 m.

Type: Ship. MMSI: 370150000.

Date/timePositionNaut miles runAvg speedWind from/ knotsBaromVisibWave heightAir tempDewpointWater temp
2015-Feb-27 00:06S 26°42' E 153°54'711.7
2015-Feb-26 23:31S 26°49' E 153°54'1111.7
2015-Feb-26 22:33S 27°00' E 153°54'1312.4
2015-Feb-26 21:32S 27°13' E 153°53'1211.9
2015-Feb-26 20:32S 27°25' E 153°53'1211.8
2015-Feb-26 19:33S 27°37' E 153°52'1211.7
2015-Feb-26 18:33S 27°48' E 153°52'1111.4
2015-Feb-26 17:33S 27°60' E 153°51'24911.3
2015-Feb-25 19:30S 32°03' E 152°53'2613.2
2015-Feb-25 17:33S 32°27' E 152°41'1212.1
2015-Feb-25 16:33S 32°37' E 152°33'1212.0
2015-Feb-25 15:33S 32°46' E 152°24'1312.5
2015-Feb-25 14:33S 32°55' E 152°14'1212.4
2015-Feb-25 13:33S 32°59' E 151°60'9 9.0
2015-Feb-25 12:33S 32°56' E 151°49'4 3.6
2015-Feb-25 11:33S 32°53' E 151°46'0 0.0
2015-Feb-25 10:33S 32°53' E 151°46'0 0.0
2015-Feb-25 09:33S 32°53' E 151°46'0 0.0
2015-Feb-25 08:33S 32°53' E 151°46'0 0.0
2015-Feb-25 07:15S 32°53' E 151°46'0 0.0
2015-Feb-25 06:33S 32°53' E 151°46'0 0.0
2015-Feb-25 05:27S 32°53' E 151°46'0 0.0
2015-Feb-25 04:33S 32°53' E 151°46'0 0.0
2015-Feb-25 03:33S 32°53' E 151°46'0 0.0
2015-Feb-25 02:27S 32°53' E 151°46'0 0.0
2015-Feb-25 01:33S 32°53' E 151°46'0 0.0
2015-Feb-25 00:27S 32°53' E 151°46'0 0.0
2015-Feb-24 23:33S 32°53' E 151°46'0 0.0
2015-Feb-24 22:30S 32°53' E 151°46'0 0.0
2015-Feb-24 21:33S 32°53' E 151°46'0 0.0
2015-Feb-24 20:27S 32°53' E 151°46'0 0.0
2015-Feb-24 19:33S 32°53' E 151°46'0 0.1
2015-Feb-24 18:33S 32°53' E 151°46'6 5.9
2015-Feb-24 17:33S 32°57' E 151°51'6 5.9
2015-Feb-24 16:33S 33°03' E 151°49'4 0.6
2015-Feb-24 10:06S 33°05' E 151°45'0 0.0
2015-Feb-24 05:24S 33°05' E 151°45'0 0.0
2015-Feb-24 03:06S 33°05' E 151°45'0 0.0
2015-Feb-24 02:30S 33°05' E 151°45'0 0.1
2015-Feb-24 01:24S 33°05' E 151°45'0 0.0
2015-Feb-24 00:30S 33°05' E 151°45'0 0.0
2015-Feb-23 23:33S 33°05' E 151°45'0 0.0
2015-Feb-23 22:30S 33°05' E 151°45'0 0.0
2015-Feb-23 21:18S 33°05' E 151°45'0 0.0
2015-Feb-23 20:30S 33°05' E 151°45'0 0.0
2015-Feb-23 19:18S 33°05' E 151°45'0 0.0
2015-Feb-23 18:33S 33°05' E 151°45'0 0.0
2015-Feb-23 17:30S 33°05' E 151°45'0 0.0
2015-Feb-23 16:30S 33°05' E 151°45'0 0.0
2015-Feb-23 15:12S 33°05' E 151°45'0 0.0
2015-Feb-23 14:12S 33°05' E 151°45'0 0.0
2015-Feb-23 13:12S 33°05' E 151°45'0 0.0
2015-Feb-23 12:24S 33°05' E 151°45'0 0.0
2015-Feb-23 08:24S 33°05' E 151°45'0 0.0
2015-Feb-23 07:30S 33°05' E 151°45'0 0.0
2015-Feb-23 06:24S 33°05' E 151°45'0 0.0
2015-Feb-23 04:18S 33°05' E 151°45'0 0.0
2015-Feb-23 03:24S 33°05' E 151°45'0 0.0
2015-Feb-23 02:30S 33°05' E 151°45'0 0.0
2015-Feb-23 01:30S 33°05' E 151°45'0 0.0
2015-Feb-23 00:30S 33°05' E 151°45'0 0.0
2015-Feb-22 23:27S 33°05' E 151°45'0 0.0
2015-Feb-22 22:30S 33°05' E 151°45'0 0.0
2015-Feb-22 21:06S 33°05' E 151°45'0 0.0
2015-Feb-22 19:27S 33°05' E 151°45'0 0.0
2015-Feb-22 16:30S 33°05' E 151°45'0 0.0
2015-Feb-22 15:30S 33°05' E 151°45'0 0.0
2015-Feb-22 14:24S 33°05' E 151°45'0 0.0
2015-Feb-22 13:27S 33°05' E 151°45'0 0.0
2015-Feb-22 12:24S 33°05' E 151°45'0 0.0
2015-Feb-22 11:30S 33°05' E 151°45'0 0.0
2015-Feb-22 09:30S 33°05' E 151°45'0 0.0
2015-Feb-22 08:30S 33°05' E 151°45'0 0.0
2015-Feb-22 07:24S 33°05' E 151°45'0 0.0
2015-Feb-22 06:18S 33°05' E 151°45'0 0.0
2015-Feb-22 05:30S 33°05' E 151°45'0 0.0
2015-Feb-22 04:30S 33°05' E 151°45'0 0.0
2015-Feb-22 03:30S 33°05' E 151°45'0 0.0
2015-Feb-22 02:30S 33°05' E 151°45'0 0.0
2015-Feb-22 01:33S 33°05' E 151°45'0 0.0
2015-Feb-22 00:15S 33°05' E 151°45'0 0.0
2015-Feb-21 23:30S 33°05' E 151°45'0 0.0
2015-Feb-21 19:30S 33°05' E 151°45'0 0.0
2015-Feb-21 18:30S 33°05' E 151°45'0 0.0
2015-Feb-21 16:24S 33°05' E 151°45'0 0.0
2015-Feb-21 15:30S 33°05' E 151°45'0 0.0
2015-Feb-21 14:24S 33°05' E 151°45'0 0.0
2015-Feb-21 13:24S 33°05' E 151°45'0 0.0
2015-Feb-21 12:30S 33°05' E 151°45'0 0.0
2015-Feb-21 11:15S 33°05' E 151°45'0 0.0
2015-Feb-21 10:21S 33°05' E 151°45'0 0.0
2015-Feb-21 09:24S 33°05' E 151°45'0 0.0
2015-Feb-21 08:30S 33°05' E 151°45'0 0.0
2015-Feb-21 07:24S 33°05' E 151°45'0 0.0
2015-Feb-21 05:06S 33°05' E 151°45'0 0.0
2015-Feb-20 20:30S 33°05' E 151°45'0 0.0
2015-Feb-20 18:18S 33°05' E 151°45'0 0.0
2015-Feb-20 17:30S 33°05' E 151°45'0 0.0
2015-Feb-20 16:33S 33°05' E 151°45'0 0.0
2015-Feb-20 15:30S 33°05' E 151°45'0 0.0
2015-Feb-20 14:24S 33°05' E 151°45'0 0.0
2015-Feb-20 13:30S 33°05' E 151°45'0 0.0
2015-Feb-20 11:24S 33°05' E 151°45'0 0.0
2015-Feb-20 10:18S 33°05' E 151°45'0 0.0
2015-Feb-20 09:24S 33°05' E 151°45'0 0.1
2015-Feb-20 08:24S 33°05' E 151°45'0 0.0
2015-Feb-20 06:30S 33°05' E 151°45'0 0.0
2015-Feb-20 05:12S 33°05' E 151°45'0 0.0
2015-Feb-20 04:12S 33°05' E 151°45'0 0.0
2015-Feb-20 03:18S 33°05' E 151°45'0 0.0
2015-Feb-20 02:30S 33°05' E 151°45'0 0.0
2015-Feb-20 01:30S 33°05' E 151°45'0 0.0
2015-Feb-20 00:27S 33°05' E 151°45'0 0.0
2015-Feb-19 23:24S 33°05' E 151°45'0 0.0
2015-Feb-19 20:30S 33°05' E 151°45'0 0.0
2015-Feb-19 19:18S 33°05' E 151°45'0 0.0
2015-Feb-19 17:24S 33°05' E 151°45'0 0.0
2015-Feb-19 16:33S 33°05' E 151°45'0 0.0
2015-Feb-19 15:30S 33°05' E 151°45'0 0.0
2015-Feb-19 14:30S 33°05' E 151°45'0 0.0
2015-Feb-19 13:30S 33°05' E 151°45'0 0.0
2015-Feb-19 12:24S 33°05' E 151°45'0 0.0
2015-Feb-19 11:30S 33°05' E 151°45'0 0.0
2015-Feb-19 10:30S 33°05' E 151°45'0 0.0
2015-Feb-19 09:18S 33°05' E 151°45'0 0.0
2015-Feb-19 08:18S 33°05' E 151°45'0 0.0
2015-Feb-19 07:30S 33°05' E 151°45'0 0.0
2015-Feb-19 06:30S 33°05' E 151°45'0 0.0
2015-Feb-19 05:30S 33°05' E 151°45'0 0.0
2015-Feb-19 04:30S 33°05' E 151°45'0 0.0
2015-Feb-19 03:33S 33°05' E 151°45'0 0.0
2015-Feb-19 02:30S 33°05' E 151°45'0 0.0
2015-Feb-19 01:18S 33°05' E 151°45'0 0.0
2015-Feb-19 00:30S 33°05' E 151°45'0 0.0
2015-Feb-18 23:30S 33°05' E 151°45'0 0.0
2015-Feb-18 20:06S 33°05' E 151°45'0 0.0
2015-Feb-18 19:30S 33°05' E 151°45'0 0.0
2015-Feb-18 18:24S 33°05' E 151°45'0 0.0
2015-Feb-18 17:24S 33°05' E 151°45'0 0.0
2015-Feb-18 14:12S 33°05' E 151°45'0 0.0
2015-Feb-18 13:33S 33°05' E 151°45'0 0.0
2015-Feb-18 12:18S 33°05' E 151°45'0 0.0
2015-Feb-18 11:33S 33°05' E 151°45'0 0.0
2015-Feb-18 10:30S 33°05' E 151°45'0 0.0
2015-Feb-18 09:30S 33°05' E 151°45'0 0.0
2015-Feb-18 08:30S 33°05' E 151°45'0 0.0
2015-Feb-18 07:12S 33°05' E 151°45'0 0.0
2015-Feb-18 06:30S 33°05' E 151°45'0 0.0
2015-Feb-18 05:30S 33°05' E 151°45'0 0.1
2015-Feb-18 04:33S 33°05' E 151°45'0 0.0
2015-Feb-18 03:24S 33°05' E 151°45'0 0.0
2015-Feb-18 02:30S 33°05' E 151°45'0 0.0
2015-Feb-18 01:24S 33°05' E 151°45'0 0.0
2015-Feb-18 00:30S 33°05' E 151°45'0 0.0
2015-Feb-17 23:30S 33°05' E 151°45'0 0.0
2015-Feb-17 22:30S 33°05' E 151°45'0 0.0
2015-Feb-17 21:30S 33°05' E 151°45'0 0.0
2015-Feb-17 20:18S 33°05' E 151°45'0 0.0
2015-Feb-17 19:06S 33°05' E 151°45'0 0.0
2015-Feb-17 17:12S 33°05' E 151°45'0 0.0
2015-Feb-17 16:33S 33°05' E 151°45'0 0.0
2015-Feb-17 15:30S 33°05' E 151°45'0 0.0
2015-Feb-17 14:12S 33°05' E 151°45'0 0.0
2015-Feb-17 13:18S 33°05' E 151°45'0 0.0
2015-Feb-17 12:30S 33°05' E 151°45'0 0.0
2015-Feb-17 11:18S 33°05' E 151°45'0 0.0
2015-Feb-17 10:24S 33°05' E 151°45'0 0.0
2015-Feb-17 09:30S 33°05' E 151°45'0 0.0
2015-Feb-17 08:24S 33°05' E 151°45'0 0.0
2015-Feb-17 07:06S 33°05' E 151°45'0 0.0
2015-Feb-17 06:24S 33°05' E 151°45'0 0.0
2015-Feb-17 05:06S 33°05' E 151°45'0 0.0
2015-Feb-17 04:24S 33°05' E 151°45'0 0.0
2015-Feb-17 02:06S 33°05' E 151°45'0 0.0
2015-Feb-17 01:24S 33°05' E 151°45'0 0.0
2015-Feb-17 00:31S 33°05' E 151°45'  
Track history (hours):
 
Tides and Currents Weather Stations Pressure Air Temp Water Temp Dewpoint Dewpoint Depression Visibility Wind Speed Wind Dir Waves Ship Positions

Coral Ruby

Last reported at 2015-Feb-27 00:06 UTC. Time now 2015-Feb-27 00:35 UTC.
Position S 26°42' E 153°54'.

Length 225 m; draft 12 m.

Type: Ship. MMSI: 370150000.

Date/timePositionNaut miles runAvg speedWind from/ knotsBaromVisibWave heightAir tempDewpointWater temp
2015-Feb-27 00:06S 26°42' E 153°54'711.7
2015-Feb-26 23:31S 26°49' E 153°54'1111.7
2015-Feb-26 22:33S 27°00' E 153°54'1312.4
2015-Feb-26 21:32S 27°13' E 153°53'1211.9
2015-Feb-26 20:32S 27°25' E 153°53'1211.8
2015-Feb-26 19:33S 27°37' E 153°52'1211.7
2015-Feb-26 18:33S 27°48' E 153°52'1111.4
2015-Feb-26 17:33S 27°60' E 153°51'24911.3
2015-Feb-25 19:30S 32°03' E 152°53'2613.2
2015-Feb-25 17:33S 32°27' E 152°41'1212.1
2015-Feb-25 16:33S 32°37' E 152°33'1212.0
2015-Feb-25 15:33S 32°46' E 152°24'1312.5
2015-Feb-25 14:33S 32°55' E 152°14'1212.4
2015-Feb-25 13:33S 32°59' E 151°60'9 9.0
2015-Feb-25 12:33S 32°56' E 151°49'4 3.6
2015-Feb-25 11:33S 32°53' E 151°46'0 0.0
2015-Feb-25 10:33S 32°53' E 151°46'0 0.0
2015-Feb-25 09:33S 32°53' E 151°46'0 0.0
2015-Feb-25 08:33S 32°53' E 151°46'0 0.0
2015-Feb-25 07:15S 32°53' E 151°46'0 0.0
2015-Feb-25 06:33S 32°53' E 151°46'0 0.0
2015-Feb-25 05:27S 32°53' E 151°46'0 0.0
2015-Feb-25 04:33S 32°53' E 151°46'0 0.0
2015-Feb-25 03:33S 32°53' E 151°46'0 0.0
2015-Feb-25 02:27S 32°53' E 151°46'0 0.0
2015-Feb-25 01:33S 32°53' E 151°46'0 0.0
2015-Feb-25 00:27S 32°53' E 151°46'0 0.0
2015-Feb-24 23:33S 32°53' E 151°46'0 0.0
2015-Feb-24 22:30S 32°53' E 151°46'0 0.0
2015-Feb-24 21:33S 32°53' E 151°46'0 0.0
2015-Feb-24 20:27S 32°53' E 151°46'0 0.0
2015-Feb-24 19:33S 32°53' E 151°46'0 0.1
2015-Feb-24 18:33S 32°53' E 151°46'6 5.9
2015-Feb-24 17:33S 32°57' E 151°51'6 5.9
2015-Feb-24 16:33S 33°03' E 151°49'4 0.6
2015-Feb-24 10:06S 33°05' E 151°45'0 0.0
2015-Feb-24 05:24S 33°05' E 151°45'0 0.0
2015-Feb-24 03:06S 33°05' E 151°45'0 0.0
2015-Feb-24 02:30S 33°05' E 151°45'0 0.1
2015-Feb-24 01:24S 33°05' E 151°45'0 0.0
2015-Feb-24 00:30S 33°05' E 151°45'0 0.0
2015-Feb-23 23:33S 33°05' E 151°45'0 0.0
2015-Feb-23 22:30S 33°05' E 151°45'0 0.0
2015-Feb-23 21:18S 33°05' E 151°45'0 0.0
2015-Feb-23 20:30S 33°05' E 151°45'0 0.0
2015-Feb-23 19:18S 33°05' E 151°45'0 0.0
2015-Feb-23 18:33S 33°05' E 151°45'0 0.0
2015-Feb-23 17:30S 33°05' E 151°45'0 0.0
2015-Feb-23 16:30S 33°05' E 151°45'0 0.0
2015-Feb-23 15:12S 33°05' E 151°45'0 0.0
2015-Feb-23 14:12S 33°05' E 151°45'0 0.0
2015-Feb-23 13:12S 33°05' E 151°45'0 0.0
2015-Feb-23 12:24S 33°05' E 151°45'0 0.0
2015-Feb-23 08:24S 33°05' E 151°45'0 0.0
2015-Feb-23 07:30S 33°05' E 151°45'0 0.0
2015-Feb-23 06:24S 33°05' E 151°45'0 0.0
2015-Feb-23 04:18S 33°05' E 151°45'0 0.0
2015-Feb-23 03:24S 33°05' E 151°45'0 0.0
2015-Feb-23 02:30S 33°05' E 151°45'0 0.0
2015-Feb-23 01:30S 33°05' E 151°45'0 0.0
2015-Feb-23 00:30S 33°05' E 151°45'0 0.0
2015-Feb-22 23:27S 33°05' E 151°45'0 0.0
2015-Feb-22 22:30S 33°05' E 151°45'0 0.0
2015-Feb-22 21:06S 33°05' E 151°45'0 0.0
2015-Feb-22 19:27S 33°05' E 151°45'0 0.0
2015-Feb-22 16:30S 33°05' E 151°45'0 0.0
2015-Feb-22 15:30S 33°05' E 151°45'0 0.0
2015-Feb-22 14:24S 33°05' E 151°45'0 0.0
2015-Feb-22 13:27S 33°05' E 151°45'0 0.0
2015-Feb-22 12:24S 33°05' E 151°45'0 0.0
2015-Feb-22 11:30S 33°05' E 151°45'0 0.0
2015-Feb-22 09:30S 33°05' E 151°45'0 0.0
2015-Feb-22 08:30S 33°05' E 151°45'0 0.0
2015-Feb-22 07:24S 33°05' E 151°45'0 0.0
2015-Feb-22 06:18S 33°05' E 151°45'0 0.0
2015-Feb-22 05:30S 33°05' E 151°45'0 0.0
2015-Feb-22 04:30S 33°05' E 151°45'0 0.0
2015-Feb-22 03:30S 33°05' E 151°45'0 0.0
2015-Feb-22 02:30S 33°05' E 151°45'0 0.0
2015-Feb-22 01:33S 33°05' E 151°45'0 0.0
2015-Feb-22 00:15S 33°05' E 151°45'0 0.0
2015-Feb-21 23:30S 33°05' E 151°45'0 0.0
2015-Feb-21 19:30S 33°05' E 151°45'0 0.0
2015-Feb-21 18:30S 33°05' E 151°45'0 0.0
2015-Feb-21 16:24S 33°05' E 151°45'0 0.0
2015-Feb-21 15:30S 33°05' E 151°45'0 0.0
2015-Feb-21 14:24S 33°05' E 151°45'0 0.0
2015-Feb-21 13:24S 33°05' E 151°45'0 0.0
2015-Feb-21 12:30S 33°05' E 151°45'0 0.0
2015-Feb-21 11:15S 33°05' E 151°45'0 0.0
2015-Feb-21 10:21S 33°05' E 151°45'0 0.0
2015-Feb-21 09:24S 33°05' E 151°45'0 0.0
2015-Feb-21 08:30S 33°05' E 151°45'0 0.0
2015-Feb-21 07:24S 33°05' E 151°45'0 0.0
2015-Feb-21 05:06S 33°05' E 151°45'0 0.0
2015-Feb-20 20:30S 33°05' E 151°45'0 0.0
2015-Feb-20 18:18S 33°05' E 151°45'0 0.0
2015-Feb-20 17:30S 33°05' E 151°45'0 0.0
2015-Feb-20 16:33S 33°05' E 151°45'0 0.0
2015-Feb-20 15:30S 33°05' E 151°45'0 0.0
2015-Feb-20 14:24S 33°05' E 151°45'0 0.0
2015-Feb-20 13:30S 33°05' E 151°45'0 0.0
2015-Feb-20 11:24S 33°05' E 151°45'0 0.0
2015-Feb-20 10:18S 33°05' E 151°45'0 0.0
2015-Feb-20 09:24S 33°05' E 151°45'0 0.1
2015-Feb-20 08:24S 33°05' E 151°45'0 0.0
2015-Feb-20 06:30S 33°05' E 151°45'0 0.0
2015-Feb-20 05:12S 33°05' E 151°45'0 0.0
2015-Feb-20 04:12S 33°05' E 151°45'0 0.0
2015-Feb-20 03:18S 33°05' E 151°45'0 0.0
2015-Feb-20 02:30S 33°05' E 151°45'0 0.0
2015-Feb-20 01:30S 33°05' E 151°45'0 0.0
2015-Feb-20 00:27S 33°05' E 151°45'0 0.0
2015-Feb-19 23:24S 33°05' E 151°45'0 0.0
2015-Feb-19 20:30S 33°05' E 151°45'0 0.0
2015-Feb-19 19:18S 33°05' E 151°45'0 0.0
2015-Feb-19 17:24S 33°05' E 151°45'0 0.0
2015-Feb-19 16:33S 33°05' E 151°45'0 0.0
2015-Feb-19 15:30S 33°05' E 151°45'0 0.0
2015-Feb-19 14:30S 33°05' E 151°45'0 0.0
2015-Feb-19 13:30S 33°05' E 151°45'0 0.0
2015-Feb-19 12:24S 33°05' E 151°45'0 0.0
2015-Feb-19 11:30S 33°05' E 151°45'0 0.0
2015-Feb-19 10:30S 33°05' E 151°45'0 0.0
2015-Feb-19 09:18S 33°05' E 151°45'0 0.0
2015-Feb-19 08:18S 33°05' E 151°45'0 0.0
2015-Feb-19 07:30S 33°05' E 151°45'0 0.0
2015-Feb-19 06:30S 33°05' E 151°45'0 0.0
2015-Feb-19 05:30S 33°05' E 151°45'0 0.0
2015-Feb-19 04:30S 33°05' E 151°45'0 0.0
2015-Feb-19 03:33S 33°05' E 151°45'0 0.0
2015-Feb-19 02:30S 33°05' E 151°45'0 0.0
2015-Feb-19 01:18S 33°05' E 151°45'0 0.0
2015-Feb-19 00:30S 33°05' E 151°45'0 0.0
2015-Feb-18 23:30S 33°05' E 151°45'0 0.0
2015-Feb-18 20:06S 33°05' E 151°45'0 0.0
2015-Feb-18 19:30S 33°05' E 151°45'0 0.0
2015-Feb-18 18:24S 33°05' E 151°45'0 0.0
2015-Feb-18 17:24S 33°05' E 151°45'0 0.0
2015-Feb-18 14:12S 33°05' E 151°45'0 0.0
2015-Feb-18 13:33S 33°05' E 151°45'0 0.0
2015-Feb-18 12:18S 33°05' E 151°45'0 0.0
2015-Feb-18 11:33S 33°05' E 151°45'0 0.0
2015-Feb-18 10:30S 33°05' E 151°45'0 0.0
2015-Feb-18 09:30S 33°05' E 151°45'0 0.0
2015-Feb-18 08:30S 33°05' E 151°45'0 0.0
2015-Feb-18 07:12S 33°05' E 151°45'0 0.0
2015-Feb-18 06:30S 33°05' E 151°45'0 0.0
2015-Feb-18 05:30S 33°05' E 151°45'0 0.1
2015-Feb-18 04:33S 33°05' E 151°45'0 0.0
2015-Feb-18 03:24S 33°05' E 151°45'0 0.0
2015-Feb-18 02:30S 33°05' E 151°45'0 0.0
2015-Feb-18 01:24S 33°05' E 151°45'0 0.0
2015-Feb-18 00:30S 33°05' E 151°45'0 0.0
2015-Feb-17 23:30S 33°05' E 151°45'0 0.0
2015-Feb-17 22:30S 33°05' E 151°45'0 0.0
2015-Feb-17 21:30S 33°05' E 151°45'0 0.0
2015-Feb-17 20:18S 33°05' E 151°45'0 0.0
2015-Feb-17 19:06S 33°05' E 151°45'0 0.0
2015-Feb-17 17:12S 33°05' E 151°45'0 0.0
2015-Feb-17 16:33S 33°05' E 151°45'0 0.0
2015-Feb-17 15:30S 33°05' E 151°45'0 0.0
2015-Feb-17 14:12S 33°05' E 151°45'0 0.0
2015-Feb-17 13:18S 33°05' E 151°45'0 0.0
2015-Feb-17 12:30S 33°05' E 151°45'0 0.0
2015-Feb-17 11:18S 33°05' E 151°45'0 0.0
2015-Feb-17 10:24S 33°05' E 151°45'0 0.0
2015-Feb-17 09:30S 33°05' E 151°45'0 0.0
2015-Feb-17 08:24S 33°05' E 151°45'0 0.0
2015-Feb-17 07:06S 33°05' E 151°45'0 0.0
2015-Feb-17 06:24S 33°05' E 151°45'0 0.0
2015-Feb-17 05:06S 33°05' E 151°45'0 0.0
2015-Feb-17 04:24S 33°05' E 151°45'0 0.0
2015-Feb-17 02:06S 33°05' E 151°45'0 0.0
2015-Feb-17 01:24S 33°05' E 151°45'0 0.0
2015-Feb-17 00:31S 33°05' E 151°45'  

Dump ship's entire track history